Kezdőlap
METAR-TAF:

METAR-TAF

Repülőterek :

Whale Cove, Nunavut, Kanada

földrajzi szélesség: 62-14N, földrajzi hosszúság: 092-36W, magasság: 20 m

Jelenlegi meteorológiai megfigyelések

A jelentés 15 perccel ezelõtt készült, 19:00 UTC
Északnyugati szél 15 kt
Hőmérséklet -2°C
Páratartalom 80%
Légköri nyomás 1019 hPa
Látótávolság: 24.1 km
Szakadozott felhőzet 1000 lábon

METAR: CYXN 241900Z 31015KT 15SM BKN010 M02/M05 A3008 RMK SC6 SLP190

Idő: 14:15 (19:15 UTC)


TAF: hiányzik

Meteorológiai megfigyelések és előrejelzések több, mint 4000 repülőtéren (METAR és TAF jelentéseket).

A térképen piros és sárga pontok jelzik az elérhető meteorológiai állomásokat.

Mozgassa az egeret a pont fölött, hogy megjelenjen az állomás neve.

Azután kattintson az időjárási megfigyelések és előrejelzések megtekintéséhez.

A térkép megváltoztatása: kattintson a fekete keresztel jelölt zöld gombra ráközelítéshez, a vonallal jelölt zöld gombra távolításhoz, vagy a zöld nyilakra a szomszédos térképek eléréséhez.


METAR-TAF: